Time;durP1;ratioP1;P1;durP2;ratioP2;P2;SDS_P1;SDS_P2;PMS_P1;PMS_P2;Temp;Humidity;BMP_temperature;BMP_pressure;BME280_temperature;BME280_humidity;BME280_pressure;Samples;Min_cycle;Max_cycle;Signal;HPM_P1;HPM_P2
2023/02/02 00:04:34;;;;;;;1999.90;999.90;;;;;;;6.77;100.00;102001.22;10379591;28;20096;-67
2023/02/02 00:09:36;;;;;;;1999.90;999.90;;;;;;;6.77;100.00;102013.38;10377917;28;20116;-67
2023/02/02 00:14:39;;;;;;;1999.90;999.90;;;;;;;6.79;100.00;102019.41;10376935;28;20062;-66
2023/02/02 00:19:41;;;;;;;1999.90;999.90;;;;;;;6.93;100.00;102014.78;10379864;28;20077;-66
2023/02/02 00:24:43;;;;;;;1999.90;999.90;;;;;;;6.86;100.00;102005.38;10376335;28;20061;-67
2023/02/02 00:29:45;;;;;;;1999.90;999.90;;;;;;;6.94;100.00;102010.41;10379168;28;20058;-67
2023/02/02 00:34:48;;;;;;;1999.90;999.90;;;;;;;6.92;100.00;102012.19;10377449;28;20119;-66
2023/02/02 00:39:50;;;;;;;1999.90;999.90;;;;;;;6.86;100.00;102008.00;10376987;28;20061;-66
2023/02/02 00:50:18;;;;;;;1999.90;999.90;;;;;;;6.80;100.00;102015.94;10440788;28;20052;-69
2023/02/02 00:55:21;;;;;;;1999.90;999.90;;;;;;;6.90;100.00;102022.63;10361329;28;20108;-69
2023/02/02 01:00:25;;;;;;;1999.90;999.90;;;;;;;6.92;100.00;102017.41;10387778;28;20526;-69
2023/02/02 01:05:27;;;;;;;1999.90;999.90;;;;;;;6.72;100.00;102004.81;10459805;28;20057;-70
2023/02/02 01:10:30;;;;;;;1999.90;999.90;;;;;;;6.79;100.00;102011.59;10455048;28;20053;-70
2023/02/02 01:15:32;;;;;;;1999.90;999.90;;;;;;;6.77;100.00;102009.03;10418626;28;20049;-70
2023/02/02 01:20:34;;;;;;;1999.90;999.90;;;;;;;6.86;100.00;102018.41;10444847;28;20057;-70
2023/02/02 01:25:37;;;;;;;1999.90;999.90;;;;;;;6.68;100.00;102024.88;10457609;28;20057;-70
2023/02/02 01:30:39;;;;;;;1999.90;999.90;;;;;;;6.70;100.00;102029.13;10451934;28;20060;-70
2023/02/02 01:35:50;;;;;;;1999.90;999.90;;;;;;;6.73;100.00;102033.44;10416872;28;20065;-70
2023/02/02 01:40:54;;;;;;;1999.90;999.90;;;;;;;6.62;100.00;102038.88;10417524;28;20053;-70
2023/02/02 01:45:58;;;;;;;1999.90;999.90;;;;;;;6.62;100.00;102018.06;10429744;28;20056;-70
2023/02/02 01:51:03;;;;;;;1999.90;999.90;;;;;;;6.64;100.00;102044.00;10431516;28;20049;-70
2023/02/02 01:56:07;;;;;;;1999.90;999.90;;;;;;;6.64;100.00;102054.44;10414227;28;20447;-71
2023/02/02 02:01:10;;;;;;;1999.90;999.90;;;;;;;6.51;100.00;102043.44;10436285;28;20053;-71
2023/02/02 02:06:16;;;;;;;1999.90;999.90;;;;;;;6.52;100.00;102042.53;10457499;28;20140;-70
2023/02/02 02:11:19;;;;;;;1999.90;999.90;;;;;;;6.42;100.00;102046.22;10446412;28;20049;-70
2023/02/02 02:16:40;;;;;;;1999.90;999.90;;;;;;;6.38;100.00;102041.97;10433985;28;20068;-70
2023/02/02 02:27:36;;;;;;;1999.90;999.90;;;;;;;6.34;100.00;102054.19;10457071;28;20064;-70
2023/02/02 02:32:44;;;;;;;1999.90;999.90;;;;;;;6.33;100.00;102055.06;10430917;28;20045;-70
2023/02/02 02:38:27;;;;;;;1999.90;999.90;;;;;;;6.42;100.00;102048.81;10413832;28;20124;-70
2023/02/02 02:43:51;;;;;;;1999.90;999.90;;;;;;;6.42;100.00;102056.63;10420667;28;20557;-70
2023/02/02 02:48:55;;;;;;;1999.90;999.90;;;;;;;6.42;100.00;102051.41;10454387;28;20053;-70
2023/02/02 02:53:57;;;;;;;1999.90;999.90;;;;;;;6.47;100.00;102041.75;10451821;28;20415;-70
2023/02/02 02:59:58;;;;;;;1999.90;999.90;;;;;;;6.50;100.00;102034.75;10455080;28;20111;-70
2023/02/02 03:05:25;;;;;;;1999.90;999.90;;;;;;;6.58;100.00;102026.78;10401614;28;20060;-70
2023/02/02 03:10:29;;;;;;;1999.90;999.90;;;;;;;6.42;100.00;102018.47;10419090;28;20420;-71
2023/02/02 03:15:31;;;;;;;1999.90;999.90;;;;;;;6.56;100.00;102022.53;10462352;28;20057;-70
2023/02/02 03:20:34;;;;;;;1999.90;999.90;;;;;;;6.47;100.00;102014.03;10461999;28;20454;-70
2023/02/02 03:25:37;;;;;;;1999.90;999.90;;;;;;;6.56;100.00;102006.91;10463127;28;20079;-70
2023/02/02 03:30:41;;;;;;;1999.90;999.90;;;;;;;6.60;100.00;102004.19;10455233;28;20412;-70
2023/02/02 03:35:43;;;;;;;1999.90;999.90;;;;;;;6.57;100.00;102022.47;10462241;28;20048;-70
2023/02/02 03:40:46;;;;;;;1999.90;999.90;;;;;;;6.57;100.00;102030.28;10460084;28;20057;-70
2023/02/02 03:45:55;;;;;;;1999.90;999.90;;;;;;;6.65;100.00;102032.72;10460999;28;20110;-70
2023/02/02 03:50:57;;;;;;;1999.90;999.90;;;;;;;6.68;100.00;102043.09;10451213;28;20060;-70
2023/02/02 03:55:59;;;;;;;1999.90;999.90;;;;;;;6.81;100.00;102043.69;10420787;28;20057;-70
2023/02/02 04:01:04;;;;;;;1999.90;999.90;;;;;;;6.81;100.00;102033.28;10420384;28;20056;-70
2023/02/02 04:06:06;;;;;;;1999.90;999.90;;;;;;;6.78;100.00;102034.19;10428539;28;20060;-70
2023/02/02 04:11:11;;;;;;;1999.90;999.90;;;;;;;6.82;100.00;102032.38;10446406;28;20112;-70
2023/02/02 04:16:14;;;;;;;1999.90;999.90;;;;;;;6.85;100.00;102037.50;10420593;28;20060;-70
2023/02/02 04:21:16;;;;;;;1999.90;999.90;;;;;;;6.84;100.00;102023.66;10419486;28;20103;-70
2023/02/02 04:26:19;;;;;;;1999.90;999.90;;;;;;;6.90;100.00;102019.19;10401435;28;20554;-70
2023/02/02 04:31:21;;;;;;;1999.90;999.90;;;;;;;6.83;100.00;102015.88;10416873;28;20497;-70
2023/02/02 04:36:24;;;;;;;1999.90;999.90;;;;;;;6.84;100.00;102020.16;10419236;28;20487;-69
2023/02/02 04:41:26;;;;;;;1999.90;999.90;;;;;;;6.93;100.00;102022.56;10418440;28;20053;-69
2023/02/02 04:46:28;;;;;;;1999.90;999.90;;;;;;;7.01;100.00;102010.25;10431691;28;20056;-69
2023/02/02 04:51:31;;;;;;;1999.90;999.90;;;;;;;6.86;100.00;102011.44;10440202;28;20099;-69
2023/02/02 04:56:33;;;;;;;1999.90;999.90;;;;;;;6.91;100.00;102011.34;10419090;28;20061;-69
2023/02/02 05:01:35;;;;;;;1999.90;999.90;;;;;;;6.91;100.00;102026.09;10417635;28;20100;-70
2023/02/02 05:06:38;;;;;;;1999.90;999.90;;;;;;;7.02;100.00;102024.09;10434236;28;20056;-70
2023/02/02 05:11:43;;;;;;;1999.90;999.90;;;;;;;6.98;100.00;102012.91;10445164;28;20057;-70
2023/02/02 05:16:45;;;;;;;1999.90;999.90;;;;;;;7.02;100.00;102026.72;10418402;28;20488;-70
2023/02/02 05:21:48;;;;;;;1999.90;999.90;;;;;;;6.93;100.00;102027.78;10412618;28;20135;-70
2023/02/02 05:26:57;;;;;;;1999.90;999.90;;;;;;;6.93;100.00;102038.19;10439111;28;20088;-69
2023/02/02 05:31:59;;;;;;;1999.90;999.90;;;;;;;6.96;100.00;102050.28;10441886;28;20554;-69
2023/02/02 05:37:01;;;;;;;1999.90;999.90;;;;;;;6.96;100.00;102038.13;10439421;28;20088;-69
2023/02/02 05:42:04;;;;;;;1999.90;999.90;;;;;;;6.99;100.00;102043.28;10458340;28;20053;-70
2023/02/02 05:47:06;;;;;;;1999.90;999.90;;;;;;;7.03;100.00;102039.69;10456186;28;20052;-70
2023/02/02 05:52:12;;;;;;;1999.90;999.90;;;;;;;7.05;100.00;102037.06;10439328;28;20451;-70
2023/02/02 05:57:15;;;;;;;1999.90;999.90;;;;;;;7.06;100.00;102036.16;10415586;28;20081;-70
2023/02/02 06:02:17;;;;;;;1999.90;999.90;;;;;;;7.03;100.00;102039.69;10416492;28;20050;-70
2023/02/02 06:07:19;;;;;;;1999.90;999.90;;;;;;;7.12;100.00;102035.19;10433374;28;20453;-69
2023/02/02 06:12:21;;;;;;;1999.90;999.90;;;;;;;7.11;100.00;102041.25;10432119;28;20052;-70
2023/02/02 06:17:24;;;;;;;1999.90;999.90;;;;;;;7.17;100.00;102047.19;10452750;28;20590;-70
2023/02/02 06:22:26;;;;;;;1999.90;999.90;;;;;;;7.13;100.00;102048.16;10415955;28;20057;-70
2023/02/02 06:27:28;;;;;;;1999.90;999.90;;;;;;;7.21;100.00;102048.84;10434616;28;20404;-70
2023/02/02 06:32:31;;;;;;;1999.90;999.90;;;;;;;7.22;100.00;102052.31;10410244;28;20515;-70
2023/02/02 06:37:33;;;;;;;1999.90;999.90;;;;;;;7.19;100.00;102054.97;10414980;28;20455;-70
2023/02/02 06:42:35;;;;;;;1999.90;999.90;;;;;;;7.20;100.00;102064.50;10421129;28;20455;-69
2023/02/02 06:47:38;;;;;;;1999.90;999.90;;;;;;;7.06;100.00;102073.50;10427152;28;20459;-69
2023/02/02 06:52:45;;;;;;;1999.90;999.90;;;;;;;7.19;100.00;102081.03;10427155;28;20053;-69
2023/02/02 06:57:47;;;;;;;1999.90;999.90;;;;;;;7.14;100.00;102086.31;10428709;28;20057;-70
2023/02/02 07:02:50;;;;;;;1999.90;999.90;;;;;;;7.12;100.00;102093.31;10410544;28;20053;-70
2023/02/02 07:07:52;;;;;;;1999.90;999.90;;;;;;;7.02;100.00;102097.03;10461702;28;20068;-70
2023/02/02 07:12:55;;;;;;;1999.90;999.90;;;;;;;6.99;100.00;102095.38;10444876;28;20057;-69
2023/02/02 07:17:57;;;;;;;1999.90;999.90;;;;;;;6.99;100.00;102099.69;10442386;28;20504;-70
2023/02/02 07:23:01;;;;;;;1999.90;999.90;;;;;;;7.07;100.00;102105.59;10469344;28;20110;-69
2023/02/02 07:28:03;;;;;;;1999.90;999.90;;;;;;;7.05;100.00;102103.00;10428046;28;20049;-70
2023/02/02 07:33:06;;;;;;;1999.90;999.90;;;;;;;6.95;100.00;102114.53;10418073;28;20056;-70
2023/02/02 07:38:08;;;;;;;1999.90;999.90;;;;;;;6.97;100.00;102127.50;10442939;28;20069;-70
2023/02/02 07:43:11;;;;;;;1999.90;999.90;;;;;;;6.96;100.00;102129.28;10427478;28;20050;-70
2023/02/02 07:48:13;;;;;;;1999.90;999.90;;;;;;;7.10;100.00;102131.56;10410293;28;20049;-71
2023/02/02 07:53:15;;;;;;;1999.90;999.90;;;;;;;6.99;100.00;102137.03;10453630;28;20407;-70
2023/02/02 07:58:18;;;;;;;1999.90;999.90;;;;;;;6.95;100.00;102144.94;10461939;28;20049;-70
2023/02/02 08:03:20;;;;;;;1999.90;999.90;;;;;;;7.00;100.00;102150.88;10427194;28;20488;-71
2023/02/02 08:08:23;;;;;;;1999.90;999.90;;;;;;;6.99;100.00;102163.06;10449752;28;20060;-70
2023/02/02 08:13:25;;;;;;;1999.90;999.90;;;;;;;7.01;100.00;102170.81;10431468;28;20492;-71
2023/02/02 08:18:27;;;;;;;1999.90;999.90;;;;;;;6.98;100.00;102174.34;10454822;28;20049;-71
2023/02/02 08:23:30;;;;;;;1999.90;999.90;;;;;;;7.02;100.00;102162.13;10425512;28;20053;-71
2023/02/02 08:28:34;;;;;;;1999.90;999.90;;;;;;;7.05;100.00;102170.72;10392461;28;20529;-71
2023/02/02 08:33:36;;;;;;;1999.90;999.90;;;;;;;7.00;100.00;102172.56;10414526;28;20053;-71
2023/02/02 08:38:41;;;;;;;1999.90;999.90;;;;;;;7.12;100.00;102178.44;10402476;28;20137;-71
2023/02/02 08:43:43;;;;;;;1999.90;999.90;;;;;;;7.22;100.00;102192.97;10437113;28;20057;-71
2023/02/02 08:48:46;;;;;;;1999.90;999.90;;;;;;;7.34;100.00;102178.81;10459357;28;20067;-71
2023/02/02 08:53:48;;;;;;;1999.90;999.90;;;;;;;7.34;100.00;102186.63;10459271;28;20052;-70
2023/02/02 08:58:53;;;;;;;1999.90;999.90;;;;;;;7.35;100.00;102199.63;10420753;28;20568;-70
2023/02/02 09:03:57;;;;;;;1999.90;999.90;;;;;;;7.32;100.00;102198.84;10417263;28;20061;-71
2023/02/02 09:09:00;;;;;;;1999.90;999.90;;;;;;;7.49;100.00;102207.16;10416288;28;20050;-70
2023/02/02 09:14:05;;;;;;;1999.90;999.90;;;;;;;7.48;100.00;102205.44;10417426;28;20049;-70
2023/02/02 09:19:08;;;;;;;1999.90;999.90;;;;;;;7.60;100.00;102215.59;10417103;28;20081;-71
2023/02/02 09:24:12;;;;;;;1999.90;999.90;;;;;;;7.66;100.00;102224.16;10416402;28;20057;-71
2023/02/02 09:29:16;;;;;;;1999.90;999.90;;;;;;;7.61;100.00;102226.88;10400193;28;20157;-71
2023/02/02 09:34:19;;;;;;;1999.90;999.90;;;;;;;7.75;100.00;102242.19;10426817;28;20060;-70
2023/02/02 09:39:21;;;;;;;1999.90;999.90;;;;;;;7.81;100.00;102237.69;10417369;28;20057;-70
2023/02/02 09:44:32;;;;;;;1999.90;999.90;;;;;;;7.95;100.00;102242.63;10416737;28;20477;-70
2023/02/02 09:49:41;;;;;;;1999.90;999.90;;;;;;;8.11;100.00;102253.53;10415754;28;20057;-71
2023/02/02 09:54:47;;;;;;;1999.90;999.90;;;;;;;7.97;100.00;102253.88;10414745;28;20496;-70
2023/02/02 09:59:51;;;;;;;1999.90;999.90;;;;;;;8.02;100.00;102258.09;10415539;28;20065;-71
2023/02/02 10:05:07;;;;;;;1999.90;999.90;;;;;;;7.97;100.00;102266.91;10428471;28;20519;-71
2023/02/02 10:10:18;;;;;;;1999.90;999.90;;;;;;;8.06;100.00;102275.41;10453066;28;20514;-71
2023/02/02 10:15:29;;;;;;;1999.90;999.90;;;;;;;8.20;100.00;102268.09;10426311;28;20053;-70
2023/02/02 10:20:42;;;;;;;1999.90;999.90;;;;;;;8.13;100.00;102270.00;10456596;28;20560;-71
2023/02/02 10:25:57;;;;;;;1999.90;999.90;;;;;;;8.12;100.00;102291.78;10453643;28;20049;-71
2023/02/02 10:31:01;;;;;;;1999.90;999.90;;;;;;;8.15;100.00;102289.13;10362007;28;20071;-70
2023/02/02 10:36:21;;;;;;;1999.90;999.90;;;;;;;8.21;100.00;102295.94;10415033;28;20500;-71
2023/02/02 10:41:44;;;;;;;1999.90;999.90;;;;;;;8.26;100.00;102290.59;10412518;28;20079;-71
2023/02/02 10:46:50;;;;;;;1999.90;999.90;;;;;;;8.19;100.00;102297.72;10414792;28;20053;-70
2023/02/02 10:52:18;;;;;;;1999.90;999.90;;;;;;;8.14;100.00;102308.25;10423283;28;20052;-71
2023/02/02 10:57:32;;;;;;;1999.90;999.90;;;;;;;8.24;100.00;102300.19;10438141;28;20484;-70
2023/02/02 11:02:34;;;;;;;1999.90;999.90;;;;;;;8.06;100.00;102302.34;10438617;28;20056;-71
2023/02/02 11:07:37;;;;;;;1999.90;999.90;;;;;;;8.24;100.00;102305.41;10415829;28;20049;-70
2023/02/02 11:12:45;;;;;;;1999.90;999.90;;;;;;;8.04;100.00;102322.41;10418202;28;20447;-71
2023/02/02 11:17:47;;;;;;;1999.90;999.90;;;;;;;7.93;100.00;102324.38;10438368;28;20057;-70
2023/02/02 11:23:00;;;;;;;1999.90;999.90;;;;;;;8.06;100.00;102317.16;10414189;28;20108;-70
2023/02/02 11:28:23;;;;;;;1999.90;999.90;;;;;;;7.96;100.00;102316.50;10416510;28;20411;-71
2023/02/02 11:33:27;;;;;;;1999.90;999.90;;;;;;;8.12;100.00;102319.59;10419704;28;20045;-70
2023/02/02 11:38:30;;;;;;;1999.90;999.90;;;;;;;8.07;100.00;102311.03;10421464;28;20493;-71
2023/02/02 11:43:35;;;;;;;1999.90;999.90;;;;;;;8.16;100.00;102297.78;10425728;28;20060;-71
2023/02/02 11:48:38;;;;;;;1999.90;999.90;;;;;;;7.97;100.00;102292.16;10444521;28;20053;-70
2023/02/02 11:53:47;;;;;;;1999.90;999.90;;;;;;;8.18;100.00;102293.38;10405392;28;20140;-70
2023/02/02 11:58:50;;;;;;;1999.90;999.90;;;;;;;8.21;100.00;102292.47;10403802;28;20088;-70
2023/02/02 12:04:24;;;;;;;1999.90;999.90;;;;;;;8.31;100.00;102299.19;10420424;28;20494;-71
2023/02/02 12:09:27;;;;;;;1999.90;999.90;;;;;;;8.17;100.00;102302.13;10420914;28;20053;-71
2023/02/02 12:15:01;;;;;;;1999.90;999.90;;;;;;;7.99;100.00;102304.25;10419931;28;20508;-70
2023/02/02 12:20:03;;;;;;;1999.90;999.90;;;;;;;8.11;100.00;102308.31;10403052;28;20057;-71
2023/02/02 12:25:27;;;;;;;1999.90;999.90;;;;;;;8.11;100.00;102300.50;10420246;28;20139;-70
2023/02/02 12:30:38;;;;;;;1999.90;999.90;;;;;;;8.08;100.00;102304.94;10420065;28;20061;-70
2023/02/02 12:35:59;;;;;;;;;;;;;;;7.76;100.00;102316.94;10431233;28;20056;-70
2023/02/02 12:41:02;;;;;;;1999.90;999.90;;;;;;;7.70;100.00;102327.47;10460268;28;19920;-70
2023/02/02 12:46:29;;;;;;;1999.90;999.90;;;;;;;7.63;100.00;102319.81;10382842;28;20054;-71
2023/02/02 12:51:53;;;;;;;1999.90;999.90;;;;;;;7.60;100.00;102314.66;10378415;28;20058;-71
2023/02/02 12:57:10;;;;;;;1999.90;999.90;;;;;;;7.64;100.00;102310.22;10394742;23;20038;-64
2023/02/02 13:02:32;;;;;;;1999.90;999.90;;;;;;;7.52;100.00;102307.88;10459578;28;20075;-61
2023/02/02 13:07:46;;;;;;;1999.90;999.90;;;;;;;7.63;100.00;102309.38;10425409;28;20408;-62
2023/02/02 13:12:53;;;;;;;1999.90;999.90;;;;;;;7.79;100.00;102293.41;10442283;28;20128;-62
2023/02/02 13:17:58;;;;;;;1999.90;999.90;;;;;;;7.85;100.00;102292.41;10458952;28;20048;-62
2023/02/02 13:23:43;;;;;;;1999.90;999.90;;;;;;;7.84;100.00;102309.81;10440932;28;20415;-62
2023/02/02 13:28:53;;;;;;;1999.90;999.90;;;;;;;7.75;100.00;102304.78;10340966;28;20077;-62
2023/02/02 13:34:11;;;;;;;1999.90;999.90;;;;;;;7.64;100.00;102307.63;10424065;28;20099;-62
2023/02/02 13:39:21;;;;;;;1999.90;999.90;;;;;;;7.69;100.00;102316.19;10440854;28;20057;-62
2023/02/02 13:44:35;;;;;;;1999.90;999.90;;;;;;;7.47;100.00;102312.31;10458320;28;20056;-62
2023/02/02 13:49:54;;;;;;;1999.90;999.90;;;;;;;7.61;100.00;102325.91;10439622;28;20439;-62
2023/02/02 13:55:19;;;;;;;1999.90;999.90;;;;;;;7.56;100.00;102317.34;10457684;28;20104;-62
2023/02/02 14:00:34;;;;;;;1999.90;999.90;;;;;;;7.47;100.00;102326.22;10439560;28;20076;-62
2023/02/02 14:05:39;;;;;;;1999.90;999.90;;;;;;;7.61;100.00;102336.34;10423691;28;20045;-62
2023/02/02 14:10:54;;;;;;;1999.90;999.90;;;;;;;7.59;100.00;102340.75;10439847;28;20049;-65
2023/02/02 14:15:58;;;;;;;1999.90;999.90;;;;;;;7.58;100.00;102344.22;10457412;28;20049;-65
2023/02/02 14:21:00;;;;;;;1999.90;999.90;;;;;;;7.48;100.00;102346.19;10439041;28;20061;-65
2023/02/02 14:26:08;;;;;;;1999.90;999.90;;;;;;;7.70;100.00;102345.72;10456440;28;20455;-63
2023/02/02 14:31:41;;;;;;;1999.90;999.90;;;;;;;7.54;100.00;102346.03;10440038;28;20045;-63
2023/02/02 14:37:08;;;;;;;1999.90;999.90;;;;;;;7.60;100.00;102373.75;10438770;28;20135;-63
2023/02/02 14:48:06;;;;;;;1999.90;999.90;;;;;;;7.57;100.00;102356.41;10441177;28;20056;-62
2023/02/02 14:53:14;;;;;;;1999.90;999.90;;;;;;;7.57;100.00;102358.16;10456669;28;20060;-63
2023/02/02 14:58:33;;;;;;;1999.90;999.90;;;;;;;7.65;100.00;102371.91;10456581;28;20060;-62
2023/02/02 15:03:47;;;;;;;1999.90;999.90;;;;;;;7.61;100.00;102371.09;10441819;28;20045;-62
2023/02/02 15:09:26;;;;;;;1999.90;999.90;;;;;;;7.66;100.00;102373.59;10446986;28;20056;-62
2023/02/02 15:14:50;;;;;;;1999.90;999.90;;;;;;;7.54;100.00;102387.75;10464418;28;20060;-63
2023/02/02 15:20:05;;;;;;;1999.90;999.90;;;;;;;7.48;100.00;102384.38;10464288;28;20060;-62
2023/02/02 15:25:30;;;;;;;1999.90;999.90;;;;;;;7.58;100.00;102385.94;10445689;28;20053;-62
2023/02/02 15:30:36;;;;;;;1999.90;999.90;;;;;;;7.54;100.00;102382.53;10463756;28;20106;-62
2023/02/02 15:35:39;;;;;;;1999.90;999.90;;;;;;;7.48;100.00;102382.66;10446357;28;20080;-62
2023/02/02 15:40:41;;;;;;;1999.90;999.90;;;;;;;7.53;100.00;102393.88;10445141;28;20458;-63
2023/02/02 15:45:54;;;;;;;1999.90;999.90;;;;;;;7.36;100.00;102380.28;10463212;28;20056;-62
2023/02/02 15:50:59;;;;;;;1999.90;999.90;;;;;;;7.44;100.00;102394.88;10445489;28;20056;-63
2023/02/02 15:56:23;;;;;;;1999.90;999.90;;;;;;;7.39;100.00;102395.84;10444540;28;20136;-63
2023/02/02 16:01:26;;;;;;;1999.90;999.90;;;;;;;7.46;100.00;102399.22;10459454;28;20495;-62
2023/02/02 16:06:29;;;;;;;1999.90;999.90;;;;;;;7.38;100.00;102408.03;10460554;28;20122;-65
2023/02/02 16:11:32;;;;;;;1999.90;999.90;;;;;;;7.56;100.00;102417.22;10460940;28;20057;-63
2023/02/02 16:16:36;;;;;;;1999.90;999.90;;;;;;;7.42;100.00;102424.47;10460834;28;20102;-63
2023/02/02 16:21:47;;;;;;;1999.90;999.90;;;;;;;7.41;100.00;102435.78;10441671;28;20059;-62
2023/02/02 16:26:54;;;;;;;1999.90;999.90;;;;;;;7.43;100.00;102445.28;10461599;28;20053;-63
2023/02/02 16:31:57;;;;;;;1999.90;999.90;;;;;;;7.41;100.00;102448.78;10442679;28;20053;-63
2023/02/02 16:37:12;;;;;;;1999.90;999.90;;;;;;;7.29;100.00;102457.69;10461223;28;20057;-63
2023/02/02 16:42:25;;;;;;;1999.90;999.90;;;;;;;7.37;100.00;102468.00;10460018;28;20479;-63
2023/02/02 16:47:29;;;;;;;1999.90;999.90;;;;;;;7.34;100.00;102471.50;10458121;28;20484;-63
2023/02/02 16:52:31;;;;;;;1999.90;999.90;;;;;;;7.56;100.00;102473.72;10460707;28;20049;-63
2023/02/02 16:57:33;;;;;;;1999.90;999.90;;;;;;;7.51;100.00;102476.41;10457458;28;20381;-63
2023/02/02 17:02:39;;;;;;;1999.90;999.90;;;;;;;7.33;100.00;102479.34;10458824;28;20103;-71
2023/02/02 17:07:47;;;;;;;1999.90;999.90;;;;;;;7.36;100.00;102498.41;10460136;28;20128;-72
2023/02/02 17:12:49;;;;;;;1999.90;999.90;;;;;;;7.36;100.00;102498.41;10459320;28;20064;-71
2023/02/02 17:17:52;;;;;;;1999.90;999.90;;;;;;;7.39;100.00;102500.94;10458544;28;20048;-71
2023/02/02 17:23:01;;;;;;;1999.90;999.90;;;;;;;7.51;100.00;102494.66;10459369;28;20057;-71
2023/02/02 17:28:11;;;;;;;1999.90;999.90;;;;;;;7.49;100.00;102504.25;10456599;28;20110;-71
2023/02/02 17:33:16;;;;;;;1999.90;999.90;;;;;;;7.46;100.00;102491.28;10458731;28;20053;-71
2023/02/02 17:38:20;;;;;;;1999.90;999.90;;;;;;;7.37;100.00;102494.06;10458251;28;20060;-71
2023/02/02 17:43:22;;;;;;;1999.90;999.90;;;;;;;7.48;100.00;102484.31;10455894;28;20103;-72
2023/02/02 17:48:25;;;;;;;1999.90;999.90;;;;;;;7.54;100.00;102499.81;10457350;28;20060;-72
2023/02/02 17:53:29;;;;;;;1999.90;999.90;;;;;;;7.52;100.00;102503.34;10454804;28;20102;-72
2023/02/02 17:58:34;;;;;;;1999.90;999.90;;;;;;;7.58;100.00;102500.63;10452862;28;20103;-72
2023/02/02 18:03:38;;;;;;;1999.90;999.90;;;;;;;7.51;100.00;102499.03;10456233;28;20095;-72
2023/02/02 18:08:40;;;;;;;1999.90;999.90;;;;;;;7.72;100.00;102489.97;10457727;28;20053;-72
2023/02/02 18:13:43;;;;;;;1999.90;999.90;;;;;;;7.60;100.00;102485.84;10438998;28;20049;-72
2023/02/02 18:18:45;;;;;;;1999.90;999.90;;;;;;;7.64;100.00;102477.06;10455618;28;20061;-72
2023/02/02 18:23:48;;;;;;;1999.90;999.90;;;;;;;7.57;100.00;102481.53;10456461;28;20088;-72
2023/02/02 18:28:51;;;;;;;1999.90;999.90;;;;;;;7.71;100.00;102476.06;10455246;28;20049;-72
2023/02/02 18:33:53;;;;;;;1999.90;999.90;;;;;;;7.71;100.00;102463.00;10452657;28;20049;-73
2023/02/02 18:38:56;;;;;;;1999.90;999.90;;;;;;;7.60;100.00;102468.44;10456237;28;20059;-72
2023/02/02 18:43:59;;;;;;;1999.90;999.90;;;;;;;7.65;100.00;102465.75;10455396;28;20055;-72
2023/02/02 18:49:01;;;;;;;1999.90;999.90;;;;;;;7.66;100.00;102459.63;10450499;28;20060;-72
2023/02/02 18:54:03;;;;;;;1999.90;999.90;;;;;;;7.76;100.00;102466.41;10452700;28;20095;-72
2023/02/02 18:59:06;;;;;;;1999.90;999.90;;;;;;;7.74;100.00;102455.16;10455693;28;20053;-64
2023/02/02 19:04:08;;;;;;;1999.90;999.90;;;;;;;7.74;100.00;102462.97;10452536;28;20094;-64
2023/02/02 19:09:16;;;;;;;1999.90;999.90;;;;;;;7.64;100.00;102466.63;10454717;28;20514;-64
2023/02/02 19:14:25;;;;;;;1999.90;999.90;;;;;;;7.62;100.00;102460.59;10455166;28;20049;-64
2023/02/02 19:19:32;;;;;;;1999.90;999.90;;;;;;;7.68;100.00;102463.06;10453358;28;20053;-64
2023/02/02 19:24:38;;;;;;;1999.90;999.90;;;;;;;7.75;100.00;102458.59;10455291;28;20053;-64
2023/02/02 19:29:41;;;;;;;1999.90;999.90;;;;;;;7.76;100.00;102460.34;10451997;28;20083;-64
2023/02/02 19:34:44;;;;;;;1999.90;999.90;;;;;;;7.77;100.00;102460.31;10454683;28;20049;-64
2023/02/02 19:39:47;;;;;;;1999.90;999.90;;;;;;;7.85;100.00;102460.16;10452624;28;20091;-64
2023/02/02 19:44:49;;;;;;;1999.90;999.90;;;;;;;7.74;100.00;102454.28;10452075;28;20136;-64
2023/02/02 19:49:52;;;;;;;1999.90;999.90;;;;;;;7.71;100.00;102447.38;10458034;28;20068;-64
2023/02/02 19:54:54;;;;;;;1999.90;999.90;;;;;;;7.60;100.00;102446.75;10462997;28;20111;-64
2023/02/02 19:59:58;;;;;;;1999.90;999.90;;;;;;;7.69;100.00;102448.31;10461960;28;20447;-64
2023/02/02 20:05:05;;;;;;;1999.90;999.90;;;;;;;7.57;100.00;102450.25;10460171;28;20052;-64
2023/02/02 20:10:22;;;;;;;1999.90;999.90;;;;;;;7.49;100.00;102451.28;10461923;28;20102;-64
2023/02/02 20:15:30;;;;;;;1999.90;999.90;;;;;;;7.65;100.00;102449.25;10462151;28;20107;-64
2023/02/02 20:20:38;;;;;;;1999.90;999.90;;;;;;;7.63;100.00;102457.97;10460482;28;20053;-64
2023/02/02 20:25:43;;;;;;;1999.90;999.90;;;;;;;7.77;100.00;102443.81;10460839;28;20053;-64
2023/02/02 20:30:45;;;;;;;1999.90;999.90;;;;;;;7.78;100.00;102448.13;10460332;28;20052;-64
2023/02/02 20:35:47;;;;;;;1999.90;999.90;;;;;;;7.71;100.00;102455.19;10460636;28;20400;-64
2023/02/02 20:40:50;;;;;;;1999.90;999.90;;;;;;;7.77;100.00;102465.53;10459220;28;20470;-64
2023/02/02 20:45:53;;;;;;;1999.90;999.90;;;;;;;7.85;100.00;102465.38;10458001;28;20049;-64
2023/02/02 20:50:55;;;;;;;1999.90;999.90;;;;;;;7.97;100.00;102469.50;10460723;28;20060;-64
2023/02/02 20:56:00;;;;;;;1999.90;999.90;;;;;;;7.96;100.00;102462.56;10417802;28;20046;-64
2023/02/02 21:01:04;;;;;;;1999.90;999.90;;;;;;;7.82;100.00;102458.47;10420587;28;20372;-64
2023/02/02 21:06:07;;;;;;;1999.90;999.90;;;;;;;7.88;100.00;102459.22;10459488;28;20407;-64
2023/02/02 21:11:09;;;;;;;1999.90;999.90;;;;;;;8.01;100.00;102455.50;10458116;28;20061;-64
2023/02/02 21:16:12;;;;;;;1999.90;999.90;;;;;;;7.96;100.00;102446.91;10459059;28;20055;-64
2023/02/02 21:21:15;;;;;;;1999.90;999.90;;;;;;;8.08;100.00;102457.09;10459644;28;20202;-64
2023/02/02 21:26:20;;;;;;;1999.90;999.90;;;;;;;7.96;100.00;102462.56;10457903;28;20055;-64
2023/02/02 21:31:23;;;;;;;1999.90;999.90;;;;;;;8.00;100.00;102451.16;10442087;28;20057;-64
2023/02/02 21:36:39;;;;;;;1999.90;999.90;;;;;;;8.10;100.00;102457.94;10424378;28;20522;-64
2023/02/02 21:41:42;;;;;;;1999.90;999.90;;;;;;;8.11;100.00;102457.03;10439252;28;20488;-64
2023/02/02 21:46:46;;;;;;;1999.90;999.90;;;;;;;8.08;100.00;102445.78;10456736;28;20522;-64
2023/02/02 21:51:49;;;;;;;1999.90;999.90;;;;;;;8.19;100.00;102441.22;10456524;28;20052;-64
2023/02/02 21:56:52;;;;;;;1999.90;999.90;;;;;;;8.11;100.00;102449.19;10457520;28;20049;-64
2023/02/02 22:01:54;;;;;;;1999.90;999.90;;;;;;;8.13;100.00;102439.59;10455141;28;20118;-64
2023/02/02 22:07:08;;;;;;;1999.90;999.90;;;;;;;8.12;100.00;102445.72;10456068;28;20057;-64
2023/02/02 22:12:21;;;;;;;1999.90;999.90;;;;;;;8.13;100.00;102433.50;10450946;28;20057;-64
2023/02/02 22:17:45;;;;;;;1999.90;999.90;;;;;;;8.09;100.00;102442.31;10457517;28;20076;-64
2023/02/02 22:22:49;;;;;;;1999.90;999.90;;;;;;;8.12;100.00;102442.22;10456449;28;20088;-64
2023/02/02 22:27:56;;;;;;;1999.90;999.90;;;;;;;8.11;100.00;102436.16;10438340;28;20111;-64
2023/02/02 22:32:59;;;;;;;1999.90;999.90;;;;;;;8.12;100.00;102429.19;10456138;28;20053;-64